createdAt,value
2022-09-18T00:01:24.081Z,0.60
2022-09-18T00:06:23.380Z,0.40
2022-09-18T00:11:17.587Z,0.60
2022-09-18T00:16:13.609Z,0.50
2022-09-18T00:21:09.141Z,0.50
2022-09-18T00:26:03.732Z,0.60
2022-09-18T00:30:58.051Z,0.30
2022-09-18T00:35:51.847Z,0.35
2022-09-18T00:40:49.917Z,0.50
2022-09-18T00:45:43.253Z,0.47
2022-09-18T00:50:36.468Z,0.40
2022-09-18T00:55:38.610Z,0.40
2022-09-18T01:00:32.956Z,0.40
2022-09-18T01:05:26.037Z,0.50
2022-09-18T01:15:45.667Z,0.60
2022-09-18T01:21:05.586Z,0.50
2022-09-18T01:26:25.881Z,0.25
2022-09-18T01:31:42.639Z,0.40
2022-09-18T01:36:37.655Z,0.70
2022-09-18T01:41:31.336Z,0.45
2022-09-18T01:46:26.186Z,0.65
2022-09-18T01:51:30.415Z,0.63
2022-09-18T01:56:26.101Z,0.50
2022-09-18T02:01:22.712Z,0.40
2022-09-18T02:06:17.755Z,0.30
2022-09-18T02:11:14.900Z,0.40
2022-09-18T02:16:29.889Z,0.47
2022-09-18T02:21:46.581Z,0.65
2022-09-18T02:27:00.309Z,0.63
2022-09-18T02:31:53.240Z,0.38
2022-09-18T02:37:43.087Z,0.40
2022-09-18T02:42:57.657Z,0.40
2022-09-18T02:48:00.441Z,0.60
2022-09-18T02:53:17.144Z,0.50
2022-09-18T02:58:36.628Z,0.60
2022-09-18T03:03:32.787Z,0.35
2022-09-18T03:08:31.798Z,0.45
2022-09-18T03:13:25.402Z,0.30
2022-09-18T03:18:19.188Z,0.50
2022-09-18T03:23:13.012Z,0.30
2022-09-18T03:28:07.770Z,0.40
2022-09-18T03:33:04.755Z,0.60
2022-09-18T03:37:59.394Z,0.50
2022-09-18T03:42:56.628Z,0.40
2022-09-18T03:47:51.962Z,0.50
2022-09-18T03:52:51.335Z,0.40
2022-09-18T03:58:13.447Z,0.40
2022-09-18T04:03:29.533Z,0.50
2022-09-18T04:08:42.052Z,0.50
2022-09-18T04:13:56.339Z,0.30
2022-09-18T04:18:49.820Z,0.40
2022-09-18T04:23:43.182Z,0.43
2022-09-18T04:28:39.506Z,0.40
2022-09-18T04:33:37.013Z,0.50
2022-09-18T04:38:33.215Z,0.20
2022-09-18T04:43:28.121Z,0.30
2022-09-18T04:48:22.999Z,0.38
2022-09-18T04:53:16.951Z,0.57
2022-09-18T04:58:11.717Z,0.35
2022-09-18T05:03:06.968Z,0.30
2022-09-18T05:08:05.271Z,0.38
2022-09-18T05:12:58.800Z,0.32
2022-09-18T05:18:09.054Z,0.30
2022-09-18T05:23:04.980Z,0.30
2022-09-18T05:28:03.477Z,0.40
2022-09-18T05:33:16.247Z,0.40
2022-09-18T05:38:11.676Z,0.50
2022-09-18T05:43:10.521Z,0.40
2022-09-18T05:48:25.388Z,0.40
2022-09-18T05:53:22.938Z,0.50
2022-09-18T05:58:29.180Z,0.43
2022-09-18T06:03:23.692Z,0.52
2022-09-18T06:08:17.210Z,0.40
2022-09-18T06:13:16.081Z,0.55
2022-09-18T06:18:17.848Z,0.63
2022-09-18T06:23:12.533Z,0.50
2022-09-18T06:28:17.756Z,2.35
2022-09-18T06:33:11.814Z,2.40
2022-09-18T06:38:07.092Z,1.45
2022-09-18T06:43:13.190Z,0.90
2022-09-18T06:53:27.256Z,1.85
2022-09-18T06:58:26.197Z,1.50
2022-09-18T07:03:23.540Z,0.80
2022-09-18T07:08:35.782Z,0.88
2022-09-18T07:13:40.307Z,0.70
2022-09-18T07:18:34.685Z,0.70
2022-09-18T07:23:32.035Z,0.50
2022-09-18T07:28:25.561Z,0.70
2022-09-18T07:33:29.910Z,0.50
2022-09-18T07:38:23.407Z,0.80
2022-09-18T07:43:22.581Z,0.70
2022-09-18T07:48:20.230Z,1.17
2022-09-18T07:53:18.428Z,0.70
2022-09-18T07:58:15.308Z,0.60
2022-09-18T08:03:25.314Z,0.70
2022-09-18T08:08:55.177Z,0.70
2022-09-18T08:13:55.961Z,0.90
2022-09-18T08:18:58.457Z,0.70
2022-09-18T08:24:07.730Z,0.98
2022-09-18T08:29:02.902Z,0.65
2022-09-18T08:33:57.403Z,0.70
2022-09-18T08:38:56.662Z,0.88
2022-09-18T08:44:14.680Z,0.75
2022-09-18T08:49:43.134Z,0.60
2022-09-18T08:54:47.842Z,0.80
2022-09-18T09:00:02.562Z,0.70
2022-09-18T09:04:59.678Z,0.60
2022-09-18T09:10:17.884Z,0.60
2022-09-18T09:15:54.286Z,1.58
2022-09-18T09:20:58.399Z,0.50
2022-09-18T09:26:44.208Z,0.70
2022-09-18T09:31:49.988Z,0.40
2022-09-18T09:37:23.846Z,0.40
2022-09-18T09:42:29.939Z,0.70
2022-09-18T09:47:51.287Z,0.40
2022-09-18T09:53:05.524Z,0.40
2022-09-18T09:58:04.245Z,0.80
2022-09-18T10:03:23.738Z,0.50
2022-09-18T10:08:28.419Z,0.65
2022-09-18T10:13:51.988Z,0.60
2022-09-18T10:18:47.895Z,0.70
2022-09-18T10:23:48.579Z,0.75
2022-09-18T10:28:42.614Z,0.50
2022-09-18T10:33:42.638Z,0.57
2022-09-18T10:38:56.692Z,0.50
2022-09-18T10:44:04.277Z,0.43
2022-09-18T10:49:00.572Z,0.50
2022-09-18T10:54:06.595Z,0.50
2022-09-18T10:59:28.069Z,0.57
2022-09-18T11:09:38.438Z,0.93
2022-09-18T11:15:07.789Z,0.60
2022-09-18T11:20:02.617Z,0.80
2022-09-18T11:25:28.323Z,0.60
2022-09-18T11:30:34.674Z,0.77
2022-09-18T11:35:31.923Z,0.70
2022-09-18T11:40:53.047Z,0.70
2022-09-18T11:46:22.707Z,0.50
2022-09-18T11:51:39.551Z,0.60
2022-09-18T11:56:37.950Z,0.65
2022-09-18T12:01:49.219Z,0.40
2022-09-18T12:07:12.981Z,0.60
2022-09-18T12:12:24.412Z,0.75
2022-09-18T12:22:17.944Z,0.60
2022-09-18T12:27:35.992Z,1.30
2022-09-18T12:32:56.480Z,0.60
2022-09-18T12:38:08.212Z,0.50
2022-09-18T12:43:29.164Z,0.60
2022-09-18T12:48:37.744Z,0.75
2022-09-18T12:53:38.976Z,0.70
2022-09-18T12:59:00.442Z,0.57
2022-09-18T13:03:55.600Z,0.80
2022-09-18T13:09:02.108Z,0.50
2022-09-18T13:14:04.365Z,0.60
2022-09-18T13:19:27.023Z,0.50
2022-09-18T13:24:23.643Z,0.30
2022-09-18T13:29:53.769Z,0.50
2022-09-18T13:35:00.740Z,0.55
2022-09-18T13:40:09.759Z,0.60
2022-09-18T13:45:26.809Z,0.60
2022-09-18T13:50:48.376Z,0.60
2022-09-18T13:56:11.024Z,0.60
2022-09-18T14:01:07.391Z,0.60
2022-09-18T14:06:36.087Z,0.65
2022-09-18T14:11:30.131Z,0.60
2022-09-18T14:16:24.288Z,0.60
2022-09-18T14:21:19.990Z,0.50
2022-09-18T14:26:40.414Z,0.70
2022-09-18T14:31:38.764Z,0.70
2022-09-18T14:36:50.943Z,0.90
2022-09-18T14:41:43.856Z,0.60
2022-09-18T14:46:57.301Z,0.70
2022-09-18T14:52:03.658Z,0.50
2022-09-18T14:57:02.254Z,0.63
2022-09-18T15:02:13.582Z,0.55
2022-09-18T15:07:08.088Z,0.60
2022-09-18T15:12:04.053Z,0.60
2022-09-18T15:16:59.310Z,3.28
2022-09-18T15:21:52.748Z,5.43
2022-09-18T15:26:58.701Z,1.80
2022-09-18T15:31:57.335Z,1.23
2022-09-18T15:37:01.881Z,1.30
2022-09-18T15:41:56.205Z,1.00
2022-09-18T15:46:49.614Z,1.10
2022-09-18T15:51:48.111Z,0.77
2022-09-18T15:56:59.361Z,0.70
2022-09-18T16:02:09.575Z,0.95
2022-09-18T16:07:21.535Z,0.70
2022-09-18T16:12:40.351Z,1.10
2022-09-18T16:17:36.919Z,0.63
2022-09-18T16:22:32.020Z,0.82
2022-09-18T16:27:27.612Z,0.90
2022-09-18T16:32:22.073Z,0.80
2022-09-18T16:37:21.194Z,0.90
2022-09-18T16:42:24.027Z,1.27
2022-09-18T16:47:26.387Z,0.85
2022-09-18T16:52:22.544Z,0.80
2022-09-18T16:57:20.850Z,0.70
2022-09-18T17:02:17.820Z,1.05
2022-09-18T17:07:13.639Z,0.88
2022-09-18T17:12:11.109Z,0.90
2022-09-18T17:17:08.716Z,0.80
2022-09-18T17:22:09.896Z,0.80
2022-09-18T17:27:07.980Z,0.90
2022-09-18T17:32:07.234Z,0.95
2022-09-18T17:37:05.557Z,1.35
2022-09-18T17:42:01.123Z,1.20
2022-09-18T17:46:55.825Z,1.27
2022-09-18T17:51:53.715Z,1.17
2022-09-18T17:56:47.760Z,1.02
2022-09-18T18:01:46.192Z,1.25
2022-09-18T18:06:39.242Z,1.38
2022-09-18T18:11:32.444Z,0.90
2022-09-18T18:16:29.260Z,0.90
2022-09-18T18:21:27.342Z,1.13
2022-09-18T18:26:21.777Z,1.33
2022-09-18T18:31:14.961Z,1.15
2022-09-18T18:36:33.687Z,1.27
2022-09-18T18:41:29.491Z,1.33
2022-09-18T18:46:25.451Z,1.52
2022-09-18T18:51:20.015Z,1.70
2022-09-18T18:56:16.530Z,1.10
2022-09-18T19:01:14.332Z,1.13
2022-09-18T19:06:08.416Z,1.40
2022-09-18T19:11:02.639Z,1.30
2022-09-18T19:15:57.956Z,2.00
2022-09-18T19:20:54.385Z,1.20
2022-09-18T19:25:52.263Z,1.30
2022-09-18T19:30:48.707Z,1.42
2022-09-18T19:35:42.754Z,1.08
2022-09-18T19:40:39.661Z,1.25
2022-09-18T19:45:35.739Z,1.50
2022-09-18T19:50:33.494Z,1.23
2022-09-18T19:55:28.104Z,1.20
2022-09-18T20:00:22.137Z,1.27
2022-09-18T20:05:16.750Z,1.58
2022-09-18T20:10:12.918Z,2.08
2022-09-18T20:15:10.013Z,1.10
2022-09-18T20:20:05.841Z,1.55
2022-09-18T20:25:01.583Z,1.40
2022-09-18T20:29:55.536Z,1.45
2022-09-18T20:34:49.776Z,1.08
2022-09-18T20:39:43.740Z,1.10
2022-09-18T20:44:36.935Z,1.38
2022-09-18T20:49:32.633Z,1.20
2022-09-18T20:54:27.152Z,1.20
2022-09-18T20:59:21.262Z,1.10
2022-09-18T21:04:22.680Z,1.48
2022-09-18T21:09:16.105Z,1.10
2022-09-18T21:14:12.731Z,1.20
2022-09-18T21:19:10.848Z,1.10
2022-09-18T21:24:04.772Z,1.40
2022-09-18T21:29:13.351Z,1.10
2022-09-18T21:34:07.059Z,1.23
2022-09-18T21:39:01.201Z,1.17
2022-09-18T21:43:58.355Z,1.00
2022-09-18T21:48:56.026Z,1.35
2022-09-18T21:53:49.454Z,1.10
2022-09-18T21:58:45.687Z,1.23
2022-09-18T22:03:40.431Z,0.85
2022-09-18T22:08:34.547Z,0.80
2022-09-18T22:13:36.079Z,0.90
2022-09-18T22:18:31.119Z,1.10
2022-09-18T22:23:25.339Z,0.85
2022-09-18T22:28:19.598Z,0.85
2022-09-18T22:33:13.711Z,0.82
2022-09-18T22:38:08.047Z,1.23
2022-09-18T22:43:02.405Z,0.93
2022-09-18T22:47:56.011Z,1.10
2022-09-18T22:52:50.384Z,1.25
2022-09-18T22:57:44.714Z,1.00
2022-09-18T23:02:39.229Z,1.20
2022-09-18T23:07:32.880Z,1.10
2022-09-18T23:12:27.256Z,1.20
2022-09-18T23:17:21.399Z,1.27
2022-09-18T23:22:15.855Z,1.33
2022-09-18T23:27:09.089Z,1.60
2022-09-18T23:32:04.871Z,1.42
2022-09-18T23:36:59.149Z,1.20
2022-09-18T23:41:53.364Z,1.63
2022-09-18T23:46:47.734Z,1.25
2022-09-18T23:51:44.043Z,1.30
2022-09-18T23:56:38.186Z,1.23
